Time;durP1;ratioP1;P1;durP2;ratioP2;P2;SDS_P1;SDS_P2;PMS_P1;PMS_P2;Temp;Humidity;BMP_temperature;BMP_pressure;BME280_temperature;BME280_humidity;BME280_pressure;Samples;Min_cycle;Max_cycle;Signal;HPM_P1;HPM_P2
2023/04/29 00:01:33;;;;;;;4.32;1.30;;;39.60;17.80;;;;;;5040502;28;20017;-66
2023/04/29 00:03:59;;;;;;;5.32;1.52;;;39.60;18.20;;;;;;5029201;28;20026;-65
2023/04/29 00:06:27;;;;;;;6.32;1.45;;;39.50;17.50;;;;;;5028028;28;20022;-64
2023/04/29 00:08:53;;;;;;;3.70;1.30;;;39.60;18.10;;;;;;5027265;28;20052;-66
2023/04/29 00:11:19;;;;;;;5.28;1.42;;;39.40;17.40;;;;;;5031054;28;20108;-66
2023/04/29 00:13:46;;;;;;;5.75;1.35;;;39.40;18.00;;;;;;5038263;28;20017;-66
2023/04/29 00:16:12;;;;;;;3.95;1.30;;;39.40;17.60;;;;;;5030602;28;20022;-67
2023/04/29 00:18:39;;;;;;;5.38;1.30;;;39.30;17.60;;;;;;5029438;28;20017;-62
2023/04/29 00:21:05;;;;;;;7.70;1.80;;;39.30;17.30;;;;;;5030092;28;20018;-66
2023/04/29 00:23:33;;;;;;;8.60;1.50;;;39.10;17.30;;;;;;5031480;28;20255;-66
2023/04/29 00:25:59;;;;;;;5.78;1.75;;;39.10;17.60;;;;;;5031866;28;20031;-67
2023/04/29 00:28:26;;;;;;;4.80;1.35;;;39.10;17.10;;;;;;5029453;28;20026;-65
2023/04/29 00:30:52;;;;;;;6.43;1.15;;;39.10;17.10;;;;;;5034481;28;20029;-66
2023/04/29 00:33:19;;;;;;;6.53;1.50;;;39.00;16.90;;;;;;5040569;28;20105;-66
2023/04/29 00:35:45;;;;;;;8.93;1.70;;;38.90;17.60;;;;;;5028459;28;20045;-65
2023/04/29 00:38:12;;;;;;;6.72;1.27;;;38.80;17.10;;;;;;5029971;28;20096;-64
2023/04/29 00:40:38;;;;;;;2.95;1.30;;;38.70;17.90;;;;;;5033194;28;20026;-64
2023/04/29 00:43:05;;;;;;;6.82;1.38;;;38.70;17.60;;;;;;5031782;28;20036;-63
2023/04/29 00:45:31;;;;;;;4.57;1.40;;;38.60;17.90;;;;;;5030307;28;20104;-65
2023/04/29 00:47:58;;;;;;;8.07;1.33;;;38.50;17.80;;;;;;5039554;28;20543;-66
2023/04/29 00:50:24;;;;;;;7.32;1.33;;;38.50;17.50;;;;;;5033562;28;20484;-63
2023/04/29 00:52:51;;;;;;;3.75;1.10;;;38.50;17.40;;;;;;5010655;28;20083;-64
2023/04/29 00:55:19;;;;;;;7.95;1.60;;;38.40;17.40;;;;;;5035410;22;20080;-61
2023/04/29 00:57:51;;;;;;;7.30;1.40;;;38.30;17.60;;;;;;5014194;28;20068;-68
2023/04/29 01:00:18;;;;;;;3.95;1.00;;;38.30;17.80;;;;;;5016700;28;20462;-65
2023/04/29 01:02:46;;;;;;;6.00;1.35;;;38.20;17.80;;;;;;5020008;28;20030;-65
2023/04/29 01:05:13;;;;;;;14.35;1.20;;;38.10;18.00;;;;;;5018698;28;20018;-66
2023/04/29 01:08:02;;;;;;;4.65;1.05;;;38.10;18.10;;;;;;5015746;28;20022;-62
2023/04/29 01:10:37;;;;;;;5.82;1.58;;;38.00;18.30;;;;;;5018991;28;20029;-67
2023/04/29 01:13:03;;;;;;;7.68;1.40;;;37.90;18.00;;;;;;5017433;28;20026;-65
2023/04/29 01:15:41;;;;;;;5.35;1.30;;;37.80;17.70;;;;;;5018307;28;20025;-63
2023/04/29 01:18:23;;;;;;;10.85;1.98;;;37.80;18.40;;;;;;5025344;28;20089;-66
2023/04/29 01:20:50;;;;;;;7.97;1.77;;;37.70;18.50;;;;;;5027065;28;20060;-65
2023/04/29 01:23:16;;;;;;;7.30;2.58;;;37.60;18.10;;;;;;5023915;28;20014;-62
2023/04/29 01:25:42;;;;;;;7.50;1.60;;;37.50;20.10;;;;;;5018527;28;20036;-64
2023/04/29 01:28:43;;;;;;;5.70;1.30;;;37.40;19.00;;;;;;5020015;28;20030;-64
2023/04/29 01:31:31;;;;;;;2.90;1.30;;;37.40;18.40;;;;;;5017713;28;20049;-64
2023/04/29 01:34:22;;;;;;;6.35;1.60;;;37.30;18.50;;;;;;5016520;28;20507;-64
2023/04/29 01:37:14;;;;;;;4.85;1.30;;;37.30;18.60;;;;;;5018357;28;20092;-64
2023/04/29 01:40:00;;;;;;;6.82;1.80;;;37.20;18.30;;;;;;5018998;28;20125;-65
2023/04/29 01:43:08;;;;;;;7.65;1.50;;;37.10;18.60;;;;;;5017188;28;20029;-63
2023/04/29 01:45:40;;;;;;;9.98;2.00;;;37.00;19.10;;;;;;4951442;28;20041;-64
2023/04/29 01:48:07;;;;;;;7.32;1.70;;;36.80;18.80;;;;;;4951913;28;20035;-61
2023/04/29 01:50:34;;;;;;;5.22;1.58;;;36.70;19.00;;;;;;4952001;28;20035;-63
2023/04/29 01:53:00;;;;;;;8.55;1.60;;;36.60;18.90;;;;;;4951953;28;20419;-64
2023/04/29 01:55:27;;;;;;;6.93;1.35;;;36.50;19.30;;;;;;4951552;28;20130;-63
2023/04/29 01:57:53;;;;;;;8.85;1.83;;;36.40;19.10;;;;;;4947326;28;20118;-66
2023/04/29 02:00:19;;;;;;;5.75;1.20;;;36.30;19.40;;;;;;4950902;29;20566;-63
2023/04/29 02:02:46;;;;;;;5.70;1.58;;;36.10;19.50;;;;;;4950501;28;20035;-66
2023/04/29 02:05:12;;;;;;;10.05;1.50;;;36.00;19.90;;;;;;4952127;28;20028;-65
2023/04/29 02:07:39;;;;;;;9.07;1.70;;;35.80;19.70;;;;;;4946984;28;20122;-67
2023/04/29 02:10:05;;;;;;;14.75;2.13;;;35.70;20.50;;;;;;4951825;29;20045;-65
2023/04/29 02:12:32;;;;;;;8.93;1.90;;;35.60;20.60;;;;;;4949906;28;20128;-68
2023/04/29 02:14:59;;;;;;;16.25;2.40;;;35.50;21.20;;;;;;4950308;28;20062;-64
2023/04/29 02:17:25;;;;;;;26.98;2.05;;;35.40;21.60;;;;;;4949563;28;20503;-65
2023/04/29 02:19:53;;;;;;;9.63;1.88;;;35.20;21.10;;;;;;4949675;28;20636;-64
2023/04/29 02:22:20;;;;;;;23.15;2.95;;;35.20;20.70;;;;;;5014553;28;20539;-67
2023/04/29 02:24:47;;;;;;;13.38;3.50;;;35.10;20.30;;;;;;5016884;28;20481;-64
2023/04/29 02:27:13;;;;;;;19.52;5.78;;;35.00;20.70;;;;;;5022203;28;20032;-65
2023/04/29 02:29:40;;;;;;;17.17;4.97;;;34.90;20.40;;;;;;5013366;28;20041;-65
2023/04/29 02:32:06;;;;;;;21.90;5.00;;;34.90;20.80;;;;;;5015565;28;20120;-64
2023/04/29 02:34:33;;;;;;;19.52;5.07;;;34.70;21.00;;;;;;5014489;28;20050;-62
2023/04/29 02:36:59;;;;;;;28.90;6.65;;;34.70;22.30;;;;;;5015086;28;20037;-64
2023/04/29 02:39:26;;;;;;;22.80;6.03;;;34.60;21.10;;;;;;5017852;28;20022;-65
2023/04/29 02:41:55;;;;;;;33.88;6.82;;;34.40;21.30;;;;;;5015886;28;20137;-66
2023/04/29 02:44:21;;;;;;;28.08;6.70;;;34.40;21.60;;;;;;5014853;28;20033;-67
2023/04/29 02:46:48;;;;;;;29.75;6.75;;;34.30;21.80;;;;;;5015320;28;20381;-64
2023/04/29 02:49:14;;;;;;;30.25;6.95;;;34.10;22.20;;;;;;5014138;28;20048;-64
2023/04/29 02:51:41;;;;;;;29.50;7.13;;;34.00;22.30;;;;;;5014872;28;20065;-66
2023/04/29 02:54:07;;;;;;;40.45;7.60;;;33.90;22.40;;;;;;5016812;28;20079;-68
2023/04/29 02:56:34;;;;;;;35.40;6.65;;;33.80;22.30;;;;;;5015748;28;20095;-68
2023/04/29 02:59:00;;;;;;;41.10;6.93;;;33.70;22.40;;;;;;5017028;28;20050;-71
2023/04/29 03:01:26;;;;;;;45.72;7.53;;;33.60;22.80;;;;;;5018150;28;20436;-68
2023/04/29 03:03:53;;;;;;;43.08;5.95;;;33.50;23.40;;;;;;5017045;28;20059;-67
2023/04/29 03:06:20;;;;;;;49.58;5.65;;;33.40;22.40;;;;;;5015144;28;20457;-64
2023/04/29 03:08:46;;;;;;;32.30;4.68;;;33.50;22.20;;;;;;5015582;28;20076;-68
2023/04/29 03:11:13;;;;;;;28.08;4.68;;;33.50;22.20;;;;;;5014459;28;20521;-67
2023/04/29 03:13:39;;;;;;;38.33;5.63;;;33.60;22.40;;;;;;5013547;28;20040;-63
2023/04/29 03:16:06;;;;;;;25.10;5.70;;;33.60;22.30;;;;;;5013817;28;20056;-67
2023/04/29 03:18:32;;;;;;;35.08;5.50;;;33.60;22.70;;;;;;5016250;28;20141;-62
2023/04/29 03:20:58;;;;;;;33.47;6.03;;;33.50;23.50;;;;;;5014825;28;20119;-63
2023/04/29 03:23:25;;;;;;;42.95;6.50;;;33.30;23.60;;;;;;5015569;28;20049;-65
2023/04/29 03:25:53;;;;;;;34.92;6.40;;;33.20;23.70;;;;;;5020407;28;20101;-65
2023/04/29 03:28:20;;;;;;;39.42;7.57;;;33.10;23.70;;;;;;5013108;28;20044;-63
2023/04/29 03:30:47;;;;;;;36.50;6.43;;;33.00;24.20;;;;;;5019441;28;20048;-63
2023/04/29 03:33:13;;;;;;;35.33;6.65;;;32.90;23.80;;;;;;5023444;28;20067;-64
2023/04/29 03:35:39;;;;;;;46.03;6.68;;;32.90;23.80;;;;;;5014494;28;20065;-64
2023/04/29 03:38:06;;;;;;;35.45;6.25;;;32.80;24.10;;;;;;5016076;28;20053;-63
2023/04/29 03:40:32;;;;;;;41.28;6.20;;;32.70;24.00;;;;;;5015619;28;20044;-64
2023/04/29 03:42:59;;;;;;;53.10;7.22;;;32.60;24.10;;;;;;5013755;28;20064;-64
2023/04/29 03:45:26;;;;;;;40.05;6.53;;;32.50;24.20;;;;;;5011689;28;20054;-65
2023/04/29 03:47:53;;;;;;;53.38;7.25;;;32.40;24.20;;;;;;5018904;28;20506;-66
2023/04/29 03:50:20;;;;;;;39.72;6.55;;;32.30;24.40;;;;;;5013670;28;20063;-64
2023/04/29 03:52:46;;;;;;;41.00;7.45;;;32.30;24.80;;;;;;5023544;28;20735;-65
2023/04/29 03:55:12;;;;;;;50.40;8.18;;;32.10;25.10;;;;;;5012229;28;20801;-65
2023/04/29 03:57:39;;;;;;;41.28;7.32;;;32.00;25.50;;;;;;5014437;28;20066;-66
2023/04/29 04:00:06;;;;;;;30.92;6.88;;;32.00;26.10;;;;;;5013331;28;20051;-65
2023/04/29 04:02:34;;;;;;;44.20;6.80;;;31.80;25.90;;;;;;5016072;28;20103;-67
2023/04/29 04:05:00;;;;;;;51.28;7.65;;;31.80;26.20;;;;;;5012382;28;20508;-66
2023/04/29 04:07:26;;;;;;;45.67;7.63;;;31.60;26.60;;;;;;5013656;28;20108;-64
2023/04/29 04:09:53;;;;;;;36.17;6.65;;;31.50;26.60;;;;;;5013746;28;20050;-66
2023/04/29 04:12:19;;;;;;;40.90;7.35;;;31.40;26.60;;;;;;5016139;28;20097;-66
2023/04/29 04:14:46;;;;;;;46.55;8.07;;;31.30;26.60;;;;;;5017690;28;20062;-66
2023/04/29 04:17:12;;;;;;;69.72;9.05;;;31.30;26.20;;;;;;5014484;28;20061;-66
2023/04/29 04:19:39;;;;;;;51.58;8.15;;;31.20;26.60;;;;;;5015546;28;20511;-66
2023/04/29 04:22:06;;;;;;;49.72;7.68;;;31.10;27.10;;;;;;5014323;28;20128;-64
2023/04/29 04:24:32;;;;;;;36.83;8.10;;;31.00;27.10;;;;;;5015469;28;20132;-64
2023/04/29 04:26:59;;;;;;;47.17;8.38;;;30.90;27.70;;;;;;5014814;28;20161;-65
2023/04/29 04:29:26;;;;;;;51.28;8.40;;;30.80;27.50;;;;;;5012580;28;20099;-65
2023/04/29 04:31:52;;;;;;;48.70;8.15;;;30.80;27.60;;;;;;5014183;28;20064;-61
2023/04/29 04:34:19;;;;;;;60.92;12.10;;;30.70;27.80;;;;;;5017075;28;20185;-63
2023/04/29 04:36:45;;;;;;;70.63;18.77;;;30.60;27.80;;;;;;5015416;28;20080;-65
2023/04/29 04:39:12;;;;;;;103.13;30.67;;;30.60;27.70;;;;;;5014520;28;20134;-64
2023/04/29 04:41:38;;;;;;;96.97;27.80;;;30.60;27.40;;;;;;5013573;28;20058;-67
2023/04/29 04:44:05;;;;;;;90.28;25.15;;;30.60;27.80;;;;;;5015958;28;20040;-66
2023/04/29 04:46:31;;;;;;;85.32;22.30;;;30.50;28.20;;;;;;5011690;28;20057;-64
2023/04/29 04:48:57;;;;;;;65.13;17.95;;;30.50;29.40;;;;;;5014559;28;20537;-65
2023/04/29 04:51:24;;;;;;;74.78;17.65;;;30.40;28.00;;;;;;5017109;28;20055;-64
2023/04/29 04:53:50;;;;;;;66.18;17.33;;;30.20;28.00;;;;;;5016337;28;20143;-65
2023/04/29 04:56:17;;;;;;;84.75;20.42;;;30.20;27.80;;;;;;5014892;28;20098;-63
2023/04/29 04:58:43;;;;;;;86.90;21.80;;;30.10;28.30;;;;;;5016394;28;20126;-66
2023/04/29 05:01:10;;;;;;;92.90;20.88;;;30.10;28.30;;;;;;5016888;28;20318;-65
2023/04/29 05:03:36;;;;;;;86.22;20.17;;;30.10;28.20;;;;;;5016143;28;20052;-65
2023/04/29 05:06:03;;;;;;;94.60;21.25;;;30.00;28.20;;;;;;5018611;28;20418;-64
2023/04/29 05:08:30;;;;;;;104.57;26.77;;;29.90;28.10;;;;;;5020796;28;20107;-65
2023/04/29 05:10:57;;;;;;;92.40;23.52;;;29.90;27.60;;;;;;5018006;28;20088;-63
2023/04/29 05:13:24;;;;;;;79.38;23.52;;;29.90;27.70;;;;;;5015552;28;20058;-64
2023/04/29 05:15:50;;;;;;;85.03;18.95;;;29.90;28.80;;;;;;5014992;28;20076;-65
2023/04/29 05:18:17;;;;;;;77.68;17.95;;;29.80;28.00;;;;;;5015819;28;20433;-66
2023/04/29 05:20:44;;;;;;;69.00;16.13;;;29.80;28.20;;;;;;5018864;28;20802;-64
2023/04/29 05:23:10;;;;;;;82.75;17.15;;;29.80;29.10;;;;;;5021891;28;20187;-64
2023/04/29 05:25:37;;;;;;;79.88;17.55;;;29.70;29.60;;;;;;5018091;28;20134;-66
2023/04/29 05:28:03;;;;;;;75.50;17.70;;;29.60;29.00;;;;;;5018216;28;20066;-65
2023/04/29 05:30:30;;;;;;;96.50;19.90;;;29.60;29.60;;;;;;5017784;28;20508;-64
2023/04/29 05:32:56;;;;;;;94.95;20.98;;;29.50;29.30;;;;;;5016298;28;20064;-64
2023/04/29 05:35:22;;;;;;;87.18;19.40;;;29.40;29.00;;;;;;5018919;28;20100;-65
2023/04/29 05:37:49;;;;;;;85.95;19.58;;;29.30;29.40;;;;;;5023951;28;20193;-65
2023/04/29 05:40:15;;;;;;;109.40;22.38;;;29.30;30.80;;;;;;5023457;28;20126;-66
2023/04/29 05:42:42;;;;;;;95.32;28.73;;;29.20;30.00;;;;;;5019966;28;20071;-63
2023/04/29 05:45:09;;;;;;;105.63;27.27;;;29.10;30.00;;;;;;5019668;28;20051;-64
2023/04/29 05:47:35;;;;;;;67.90;20.52;;;29.10;29.50;;;;;;5016620;28;20101;-65
2023/04/29 05:50:02;;;;;;;78.07;21.23;;;29.10;29.50;;;;;;5015866;28;20056;-64
2023/04/29 05:52:28;;;;;;;85.18;20.45;;;29.00;30.20;;;;;;5013500;28;20054;-67
2023/04/29 05:54:55;;;;;;;79.00;20.38;;;28.90;29.90;;;;;;5018576;28;20099;-64
2023/04/29 05:57:22;;;;;;;76.55;19.65;;;28.90;30.00;;;;;;5020066;28;20082;-66
2023/04/29 05:59:48;;;;;;;81.72;19.98;;;28.90;30.00;;;;;;5023600;28;20070;-65
2023/04/29 06:02:14;;;;;;;79.07;19.73;;;28.80;31.00;;;;;;5022650;28;20057;-67
2023/04/29 06:04:41;;;;;;;76.32;19.08;;;28.80;31.50;;;;;;5022809;28;20199;-65
2023/04/29 06:07:11;;;;;;;75.53;18.38;;;28.70;30.90;;;;;;5023656;28;20062;-66
2023/04/29 06:09:38;;;;;;;70.43;17.13;;;28.60;32.10;;;;;;5026105;28;20117;-64
2023/04/29 06:12:04;;;;;;;92.82;19.63;;;28.50;32.30;;;;;;5023252;28;20629;-67
2023/04/29 06:14:31;;;;;;;60.15;17.15;;;28.40;32.60;;;;;;5023066;28;20192;-67
2023/04/29 06:16:57;;;;;;;72.78;18.63;;;28.30;32.00;;;;;;5025478;28;20073;-66
2023/04/29 06:19:24;;;;;;;77.00;18.02;;;28.30;32.50;;;;;;5024914;28;20067;-69
2023/04/29 06:21:50;;;;;;;78.75;18.38;;;28.20;32.20;;;;;;5025492;28;21478;-67
2023/04/29 06:24:17;;;;;;;66.68;17.58;;;28.30;32.60;;;;;;5024456;28;20511;-67
2023/04/29 06:26:43;;;;;;;65.82;19.02;;;28.20;32.70;;;;;;5020532;28;20061;-71
2023/04/29 06:29:10;;;;;;;79.18;18.17;;;28.20;33.90;;;;;;5021264;28;20078;-66
2023/04/29 06:31:37;;;;;;;66.90;16.50;;;28.10;33.50;;;;;;5020805;28;20071;-67
2023/04/29 06:34:03;;;;;;;72.15;16.70;;;28.10;33.80;;;;;;5022742;28;20082;-67
2023/04/29 06:36:31;;;;;;;66.20;16.90;;;28.00;33.60;;;;;;5023475;28;20166;-69
2023/04/29 06:38:57;;;;;;;69.80;18.00;;;28.00;35.50;;;;;;5024643;28;20115;-66
2023/04/29 06:41:24;;;;;;;80.28;18.10;;;27.90;35.10;;;;;;5024970;28;20127;-66
2023/04/29 06:43:50;;;;;;;82.70;17.35;;;27.80;35.10;;;;;;5024016;28;20150;-63
2023/04/29 06:46:17;;;;;;;87.88;18.73;;;27.70;34.40;;;;;;5024665;28;20074;-65
2023/04/29 06:48:43;;;;;;;92.15;18.08;;;27.70;34.30;;;;;;5023463;28;20083;-69
2023/04/29 06:51:10;;;;;;;180.70;25.65;;;27.50;35.00;;;;;;5020240;28;20068;-70
2023/04/29 06:53:36;;;;;;;151.13;23.33;;;27.50;35.80;;;;;;5022373;28;20143;-67
2023/04/29 06:56:02;;;;;;;185.85;27.33;;;27.40;35.80;;;;;;5022441;28;20102;-65
2023/04/29 06:58:29;;;;;;;147.40;23.80;;;27.40;36.60;;;;;;5007955;28;20479;-64
2023/04/29 07:00:55;;;;;;;192.52;26.60;;;27.40;36.40;;;;;;5022218;28;20118;-65
2023/04/29 07:03:22;;;;;;;117.28;21.08;;;27.40;37.10;;;;;;5021737;28;20526;-66
2023/04/29 07:05:48;;;;;;;90.07;17.73;;;27.30;38.70;;;;;;5021584;28;20077;-66
2023/04/29 07:08:15;;;;;;;79.53;16.23;;;27.20;37.00;;;;;;5020701;28;20095;-64
2023/04/29 07:10:41;;;;;;;79.53;17.17;;;27.10;37.40;;;;;;5022286;28;20143;-63
2023/04/29 07:13:08;;;;;;;74.28;16.20;;;27.10;37.10;;;;;;5022049;28;20116;-64
2023/04/29 07:15:35;;;;;;;89.82;18.08;;;27.10;36.80;;;;;;5021723;28;20087;-60
2023/04/29 07:18:05;;;;;;;82.80;17.67;;;27.10;36.80;;;;;;5024654;28;20063;-61
2023/04/29 07:20:32;;;;;;;73.53;16.52;;;27.00;36.30;;;;;;5017433;28;20105;-67
2023/04/29 07:22:58;;;;;;;95.82;18.55;;;26.90;36.90;;;;;;5016779;28;20964;-64
2023/04/29 07:25:28;;;;;;;96.82;18.52;;;26.80;36.40;;;;;;5019002;28;20102;-66
2023/04/29 07:27:55;;;;;;;94.40;17.98;;;26.80;36.20;;;;;;5023023;28;20069;-68
2023/04/29 07:30:22;;;;;;;86.43;18.15;;;26.80;37.40;;;;;;5005214;28;20477;-66
2023/04/29 07:32:48;;;;;;;100.28;18.33;;;26.90;36.00;;;;;;5019038;28;21481;-67
2023/04/29 07:35:15;;;;;;;110.82;19.30;;;26.80;36.60;;;;;;5022592;28;20082;-64
2023/04/29 07:37:42;;;;;;;101.43;19.75;;;26.80;36.80;;;;;;5019956;28;20061;-64
2023/04/29 07:40:09;;;;;;;85.78;19.15;;;26.70;36.60;;;;;;5022848;28;20068;-69
2023/04/29 07:42:35;;;;;;;107.40;18.85;;;26.80;36.70;;;;;;5022463;28;20060;-67
2023/04/29 07:45:02;;;;;;;100.07;17.05;;;26.80;36.40;;;;;;5021544;28;20151;-66
2023/04/29 07:47:28;;;;;;;142.90;19.52;;;26.80;37.10;;;;;;5021400;28;20076;-66
2023/04/29 07:49:54;;;;;;;85.25;17.90;;;26.80;36.40;;;;;;5021660;28;20117;-61
2023/04/29 07:52:21;;;;;;;101.72;18.65;;;26.80;36.10;;;;;;5021347;28;20436;-67
2023/04/29 07:54:47;;;;;;;98.53;16.75;;;26.80;36.10;;;;;;5017954;28;20716;-67
2023/04/29 07:57:14;;;;;;;102.15;16.00;;;26.80;35.80;;;;;;5023740;28;20084;-64
2023/04/29 07:59:40;;;;;;;87.30;16.67;;;26.80;36.10;;;;;;5021848;28;20159;-65
2023/04/29 08:02:07;;;;;;;98.25;18.85;;;26.80;36.50;;;;;;5018455;28;20152;-66
2023/04/29 08:04:33;;;;;;;102.38;17.73;;;26.80;36.60;;;;;;5021234;28;20640;-63
2023/04/29 08:06:59;;;;;;;83.65;15.68;;;26.80;36.10;;;;;;5020793;28;20070;-64
2023/04/29 08:09:26;;;;;;;96.15;18.42;;;26.80;36.20;;;;;;5023870;28;20089;-64
2023/04/29 08:11:52;;;;;;;89.05;16.95;;;26.70;36.00;;;;;;5018482;28;20065;-65
2023/04/29 08:14:19;;;;;;;93.30;17.60;;;26.70;36.20;;;;;;5014039;28;20473;-67
2023/04/29 08:16:45;;;;;;;79.45;16.38;;;26.70;36.20;;;;;;5015846;28;20440;-65
2023/04/29 08:19:11;;;;;;;84.00;17.42;;;26.50;37.60;;;;;;5016995;28;20070;-68
2023/04/29 08:21:38;;;;;;;83.25;17.08;;;26.50;38.40;;;;;;5022773;28;20541;-64
2023/04/29 08:24:04;;;;;;;88.22;16.27;;;26.50;38.50;;;;;;5021693;28;20079;-65
2023/04/29 08:26:31;;;;;;;82.70;17.15;;;26.40;37.80;;;;;;5023237;28;20130;-64
2023/04/29 08:28:57;;;;;;;72.28;15.13;;;26.30;38.00;;;;;;5025262;28;20096;-64
2023/04/29 08:31:24;;;;;;;82.13;15.55;;;26.20;37.80;;;;;;5022206;28;20081;-67
2023/04/29 08:33:51;;;;;;;76.57;14.88;;;26.20;38.80;;;;;;5023103;28;20146;-66
2023/04/29 08:36:17;;;;;;;80.47;15.35;;;26.20;39.50;;;;;;5023296;28;20094;-66
2023/04/29 08:38:44;;;;;;;76.78;14.10;;;26.30;39.10;;;;;;5023030;28;20159;-64
2023/04/29 08:41:10;;;;;;;91.25;15.13;;;26.30;38.40;;;;;;5023676;28;20074;-64
2023/04/29 08:43:39;;;;;;;66.43;13.45;;;26.20;37.40;;;;;;5024483;28;20073;-63
2023/04/29 08:46:06;;;;;;;60.78;14.27;;;26.10;38.70;;;;;;5028647;28;20068;-64
2023/04/29 08:48:35;;;;;;;68.55;12.98;;;26.10;40.20;;;;;;5023610;28;20090;-65
2023/04/29 08:51:02;;;;;;;57.15;12.23;;;26.10;38.60;;;;;;5025620;28;20075;-65
2023/04/29 08:53:29;;;;;;;64.55;12.98;;;26.10;37.10;;;;;;5024908;28;20592;-64
2023/04/29 08:56:00;;;;;;;55.25;11.90;;;26.00;37.20;;;;;;5025406;28;20270;-63
2023/04/29 08:58:29;;;;;;;53.95;11.18;;;26.00;37.20;;;;;;5024972;28;20071;-62
2023/04/29 09:00:56;;;;;;;59.53;12.10;;;26.00;37.40;;;;;;5020387;28;20082;-66
2023/04/29 09:03:29;;;;;;;47.90;10.00;;;26.00;37.70;;;;;;5021104;28;20069;-64
2023/04/29 09:05:58;;;;;;;49.47;10.07;;;26.00;37.70;;;;;;5024405;28;20174;-63
2023/04/29 09:08:24;;;;;;;60.55;10.77;;;25.90;37.40;;;;;;5024258;28;20131;-65
2023/04/29 09:10:54;;;;;;;33.80;7.47;;;25.90;37.80;;;;;;5025095;28;20177;-63
2023/04/29 09:13:28;;;;;;;30.92;7.18;;;26.00;37.40;;;;;;5024280;28;20067;-64
2023/04/29 09:15:55;;;;;;;19.42;5.88;;;26.00;37.60;;;;;;5024889;28;20146;-62
2023/04/29 09:19:00;;;;;;;27.08;6.18;;;26.10;37.50;;;;;;5025857;28;20119;-62
2023/04/29 09:21:28;;;;;;;21.50;5.97;;;26.10;37.50;;;;;;4970271;28;20506;-63
2023/04/29 09:23:56;;;;;;;20.42;5.78;;;26.10;37.70;;;;;;4970663;28;20082;-62
2023/04/29 09:26:23;;;;;;;28.15;5.53;;;26.10;37.70;;;;;;4970314;28;20627;-63
2023/04/29 09:29:14;;;;;;;25.75;5.53;;;26.10;38.00;;;;;;4969437;28;20082;-64
2023/04/29 09:31:41;;;;;;;22.25;5.43;;;26.10;38.50;;;;;;4970423;28;20531;-62
2023/04/29 09:34:10;;;;;;;22.80;5.10;;;26.10;39.10;;;;;;4969375;28;20652;-64
2023/04/29 09:36:50;;;;;;;19.55;5.00;;;26.10;39.10;;;;;;4969726;28;20178;-63
2023/04/29 09:39:18;;;;;;;19.98;4.97;;;26.00;40.20;;;;;;4970820;28;20127;-65
2023/04/29 09:41:53;;;;;;;20.77;5.20;;;25.90;40.70;;;;;;4970414;28;20081;-65
2023/04/29 09:44:31;;;;;;;18.08;5.60;;;25.80;40.00;;;;;;4970862;28;20075;-66
2023/04/29 09:47:05;;;;;;;29.38;7.07;;;25.80;39.80;;;;;;4970124;28;20159;-66
2023/04/29 09:49:37;;;;;;;33.58;6.78;;;25.80;39.50;;;;;;4970409;28;20073;-66
2023/04/29 09:52:19;;;;;;;32.83;6.40;;;25.80;39.50;;;;;;4994997;28;20154;-67
2023/04/29 09:54:46;;;;;;;20.98;5.50;;;25.70;40.80;;;;;;5022335;28;20510;-64
2023/04/29 09:57:14;;;;;;;27.52;5.72;;;25.60;41.20;;;;;;5023314;28;20551;-63
2023/04/29 09:59:42;;;;;;;23.02;6.30;;;25.40;41.20;;;;;;5024529;28;20426;-64
2023/04/29 10:02:19;;;;;;;29.55;6.38;;;25.20;41.10;;;;;;5025251;28;20067;-65
2023/04/29 10:04:55;;;;;;;31.30;7.10;;;25.30;41.60;;;;;;5023723;28;20117;-63
2023/04/29 10:07:22;;;;;;;;;;;25.20;41.40;;;;;;5025639;28;20073;-64
2023/04/29 10:09:49;;;;;;;19.67;5.65;;;25.20;42.20;;;;;;5022651;28;20332;-64
2023/04/29 10:12:18;;;;;;;29.20;6.38;;;25.10;41.70;;;;;;5022763;28;20089;-65
2023/04/29 10:15:06;;;;;;;22.83;6.68;;;25.10;41.80;;;;;;5026520;28;20119;-65
2023/04/29 10:17:41;;;;;;;23.48;5.72;;;25.20;42.90;;;;;;5022971;28;20073;-66
2023/04/29 10:20:08;;;;;;;30.55;6.25;;;25.20;42.30;;;;;;5024910;28;20170;-64
2023/04/29 10:22:49;;;;;;;29.90;6.63;;;25.20;42.00;;;;;;5023077;28;20076;-66
2023/04/29 10:25:20;;;;;;;23.60;5.95;;;25.20;43.30;;;;;;5024482;28;20076;-66
2023/04/29 10:27:49;;;;;;;22.88;5.95;;;25.20;42.70;;;;;;5011297;28;20535;-65
2023/04/29 10:30:17;;;;;;;33.00;6.50;;;25.10;43.10;;;;;;5020617;28;20472;-65
2023/04/29 10:32:44;;;;;;;22.85;6.25;;;24.90;43.90;;;;;;5023166;28;20082;-65
2023/04/29 10:35:13;;;;;;;25.73;6.30;;;24.90;44.90;;;;;;5022448;28;20119;-69
2023/04/29 10:37:41;;;;;;;24.85;5.53;;;24.90;44.00;;;;;;5021878;28;20160;-65
2023/04/29 10:40:12;;;;;;;39.13;6.80;;;24.80;43.90;;;;;;5024299;28;20067;-64
2023/04/29 10:42:43;;;;;;;20.98;5.28;;;24.70;44.50;;;;;;5021724;28;20083;-65
2023/04/29 10:45:34;;;;;;;32.45;6.00;;;24.70;44.00;;;;;;5020857;28;20070;-61
2023/04/29 10:48:10;;;;;;;26.30;5.90;;;24.70;43.90;;;;;;5022828;28;20099;-64
2023/04/29 10:50:48;;;;;;;28.43;5.80;;;24.70;43.70;;;;;;5023566;28;20076;-65
2023/04/29 10:53:18;;;;;;;23.17;5.90;;;24.70;43.80;;;;;;5022630;28;20312;-65
2023/04/29 10:55:56;;;;;;;28.83;5.78;;;24.70;43.50;;;;;;5024653;28;20112;-62
2023/04/29 10:58:45;;;;;;;26.10;5.32;;;24.70;44.10;;;;;;5024668;28;20459;-67
2023/04/29 11:01:16;;;;;;;18.00;5.32;;;24.70;43.50;;;;;;5024418;28;20400;-65
2023/04/29 11:03:57;;;;;;;26.58;5.53;;;24.70;43.60;;;;;;5023688;28;20075;-66
2023/04/29 11:06:25;;;;;;;25.48;6.15;;;24.70;45.20;;;;;;5022978;28;20118;-63
2023/04/29 11:09:02;;;;;;;23.52;5.75;;;24.60;44.50;;;;;;5024941;28;20117;-64
2023/04/29 11:12:02;;;;;;;17.45;5.30;;;24.50;44.60;;;;;;5019738;28;20099;-65
2023/04/29 11:14:32;;;;;;;14.25;4.97;;;24.50;44.20;;;;;;5022264;28;20589;-64
2023/04/29 11:17:01;;;;;;;18.17;5.30;;;24.50;44.10;;;;;;5022748;28;20078;-63
2023/04/29 11:19:32;;;;;;;18.25;4.65;;;24.50;44.00;;;;;;5021139;28;20077;-64
2023/04/29 11:22:12;;;;;;;14.88;4.90;;;24.50;43.70;;;;;;5021721;28;20558;-65
2023/04/29 11:24:53;;;;;;;15.00;4.95;;;24.50;42.70;;;;;;5021449;28;20095;-66
2023/04/29 11:27:24;;;;;;;21.15;5.30;;;24.50;42.40;;;;;;5020775;28;20067;-64
2023/04/29 11:29:54;;;;;;;16.90;4.65;;;24.60;42.70;;;;;;5020519;28;20077;-64
2023/04/29 11:32:22;;;;;;;12.38;4.10;;;24.60;42.70;;;;;;5021530;28;20435;-65
2023/04/29 11:34:48;;;;;;;21.45;4.82;;;24.60;42.40;;;;;;5022022;28;20108;-65
2023/04/29 11:37:20;;;;;;;14.90;5.13;;;24.50;42.30;;;;;;5022972;28;20099;-65
2023/04/29 11:39:47;;;;;;;20.30;4.97;;;24.50;42.50;;;;;;5021573;28;20481;-65
2023/04/29 11:42:18;;;;;;;18.65;4.50;;;24.50;43.30;;;;;;5020518;28;20075;-63
2023/04/29 11:44:44;;;;;;;16.70;4.50;;;24.40;44.00;;;;;;5023559;28;20060;-64
2023/04/29 11:47:11;;;;;;;24.48;5.05;;;24.40;44.10;;;;;;5022634;28;20079;-64
2023/04/29 11:49:37;;;;;;;17.88;5.20;;;24.30;44.60;;;;;;5020181;28;20087;-65
2023/04/29 11:52:04;;;;;;;13.38;5.20;;;24.30;44.70;;;;;;5023772;28;20155;-65
2023/04/29 11:54:30;;;;;;;13.68;5.00;;;24.30;44.40;;;;;;5023143;28;20068;-64
2023/04/29 11:57:03;;;;;;;33.30;6.18;;;24.30;44.20;;;;;;5018352;28;20114;-64
2023/04/29 11:59:33;;;;;;;26.75;5.75;;;24.30;44.20;;;;;;5020496;28;20083;-65
2023/04/29 12:02:00;;;;;;;21.17;5.97;;;24.20;44.00;;;;;;5019124;28;20076;-65
2023/04/29 12:04:26;;;;;;;20.23;5.50;;;24.10;44.10;;;;;;5020799;28;21085;-66
2023/04/29 12:06:57;;;;;;;19.33;5.50;;;24.10;44.20;;;;;;5020132;28;20112;-66
2023/04/29 12:09:24;;;;;;;22.15;5.88;;;24.10;45.10;;;;;;5021710;28;20147;-65
2023/04/29 12:11:51;;;;;;;22.40;5.82;;;24.10;45.10;;;;;;5021117;28;20527;-65
2023/04/29 12:14:19;;;;;;;23.42;6.03;;;24.00;45.40;;;;;;5020748;28;20091;-66
2023/04/29 12:16:45;;;;;;;25.15;7.13;;;23.90;45.40;;;;;;5021889;28;20464;-65
2023/04/29 12:19:12;;;;;;;25.27;6.50;;;23.90;45.20;;;;;;5021382;28;20060;-65
2023/04/29 12:21:48;;;;;;;26.05;6.35;;;23.80;45.00;;;;;;5019464;28;20080;-65
2023/04/29 12:24:15;;;;;;;;;;;23.90;45.90;;;;;;5019572;28;20067;-67
2023/04/29 12:26:44;;;;;;;27.83;5.97;;;23.80;45.70;;;;;;5020578;28;19956;-67
2023/04/29 12:29:10;;;;;;;25.95;6.45;;;23.80;46.20;;;;;;5019349;28;20091;-64
2023/04/29 12:31:37;;;;;;;23.77;6.72;;;23.80;45.80;;;;;;5021147;28;20103;-64
2023/04/29 12:34:04;;;;;;;15.07;5.28;;;23.80;46.00;;;;;;5022532;28;20097;-65
2023/04/29 12:36:31;;;;;;;23.48;6.72;;;23.80;46.60;;;;;;5019490;28;20097;-66
2023/04/29 12:38:58;;;;;;;18.15;5.70;;;23.70;46.70;;;;;;5020776;28;20072;-65
2023/04/29 12:41:41;;;;;;;16.77;5.97;;;23.70;46.80;;;;;;5020485;28;20164;-66
2023/04/29 12:44:09;;;;;;;24.50;6.07;;;23.50;47.30;;;;;;5021126;28;20125;-66